Time;durP1;ratioP1;P1;durP2;ratioP2;P2;SDS_P1;SDS_P2;PMS_P1;PMS_P2;Temp;Humidity;BMP_temperature;BMP_pressure;BME280_temperature;BME280_humidity;BME280_pressure;Samples;Min_cycle;Max_cycle;Signal;HPM_P1;HPM_P2
2022/01/31 00:00:56;;;;;;;33.22;10.63;;;5.40;82.40;;;;;;6188625;23;20081;-74
2022/01/31 00:03:21;;;;;;;34.58;9.75;;;5.40;82.40;;;;;;6162100;23;20013;-75
2022/01/31 00:05:47;;;;;;;27.00;9.15;;;5.50;82.60;;;;;;6137782;23;20016;-75
2022/01/31 00:08:22;;;;;;;29.38;11.45;;;5.50;82.60;;;;;;6113382;23;20029;-79
2022/01/31 00:10:48;;;;;;;30.25;10.43;;;5.50;82.60;;;;;;6114629;23;20024;-73
2022/01/31 00:13:20;;;;;;;40.03;10.43;;;5.40;82.60;;;;;;6113097;23;20397;-80
2022/01/31 00:15:53;;;;;;;36.65;11.32;;;5.50;83.40;;;;;;6138039;23;20347;-75
2022/01/31 00:18:18;;;;;;;;;;;5.40;82.70;;;;;;6161708;23;20321;-73
2022/01/31 00:20:44;;;;;;;32.10;10.80;;;5.40;83.40;;;;;;6187901;23;20067;-77
2022/01/31 00:23:10;;;;;;;32.78;10.27;;;5.40;82.50;;;;;;6162194;23;20092;-76
2022/01/31 00:25:35;;;;;;;29.42;9.98;;;5.40;82.60;;;;;;6162124;23;20021;-75
2022/01/31 00:28:01;;;;;;;36.10;12.93;;;5.40;82.70;;;;;;6162615;23;20040;-75
2022/01/31 00:30:27;;;;;;;34.42;12.55;;;5.40;82.80;;;;;;6113264;23;20021;-75
2022/01/31 00:32:52;;;;;;;25.42;10.73;;;5.40;82.90;;;;;;6189035;23;20017;-76
2022/01/31 00:35:18;;;;;;;33.53;12.23;;;5.40;82.90;;;;;;6113018;23;20017;-81
2022/01/31 00:37:44;;;;;;;33.45;12.00;;;5.40;83.00;;;;;;6113017;23;20060;-76
2022/01/31 00:40:10;;;;;;;37.78;12.90;;;5.40;82.90;;;;;;6137869;23;20025;-76
2022/01/31 00:42:36;;;;;;;31.35;12.75;;;5.40;83.00;;;;;;6112857;23;20096;-76
2022/01/31 00:47:34;;;;;;;39.25;13.52;;;5.40;83.10;;;;;;6163130;23;20456;-75
2022/01/31 00:50:10;;;;;;;31.58;14.10;;;5.40;83.10;;;;;;6136555;23;20107;-75
2022/01/31 00:52:37;;;;;;;31.80;13.45;;;5.40;83.10;;;;;;6114265;23;20383;-75
2022/01/31 00:55:06;;;;;;;36.70;14.55;;;5.50;83.20;;;;;;6162130;23;20017;-75
2022/01/31 00:57:31;;;;;;;33.90;14.07;;;5.40;83.10;;;;;;6138127;23;20079;-75
2022/01/31 00:59:57;;;;;;;32.20;15.02;;;5.50;83.20;;;;;;6136917;23;20013;-75
2022/01/31 01:02:23;;;;;;;41.40;16.13;;;5.40;83.20;;;;;;6161377;23;20030;-75
2022/01/31 01:04:49;;;;;;;39.55;16.02;;;5.40;83.20;;;;;;6137367;23;20020;-73
2022/01/31 01:07:15;;;;;;;34.00;15.32;;;5.40;83.20;;;;;;6160964;23;20095;-73
2022/01/31 01:09:42;;;;;;;42.00;16.42;;;5.40;83.30;;;;;;6088159;23;20021;-73
2022/01/31 01:12:10;;;;;;;33.33;16.05;;;5.40;83.40;;;;;;6137274;23;20048;-74
2022/01/31 01:14:36;;;;;;;36.38;16.55;;;5.40;83.60;;;;;;6135996;23;20025;-74
2022/01/31 01:17:02;;;;;;;38.70;16.13;;;5.40;83.70;;;;;;6112022;23;20021;-73
2022/01/31 01:19:27;;;;;;;35.65;16.33;;;5.40;83.80;;;;;;6111402;23;20024;-73
2022/01/31 01:21:53;;;;;;;36.50;16.25;;;5.40;83.90;;;;;;6160844;23;20075;-79
2022/01/31 01:24:19;;;;;;;41.92;17.75;;;5.40;83.90;;;;;;6134658;23;20069;-78
2022/01/31 01:26:46;;;;;;;43.95;18.60;;;5.40;84.10;;;;;;6134160;23;20343;-78
2022/01/31 01:29:11;;;;;;;35.13;17.17;;;5.50;84.40;;;;;;6134897;23;20478;-80
2022/01/31 01:31:38;;;;;;;37.45;18.65;;;5.40;84.50;;;;;;6158955;23;20096;-79
2022/01/31 01:34:03;;;;;;;38.13;19.65;;;5.40;84.80;;;;;;6136950;23;20100;-79
2022/01/31 01:36:31;;;;;;;37.33;20.38;;;5.40;85.10;;;;;;6160761;23;20450;-79
2022/01/31 01:38:57;;;;;;;40.22;20.60;;;5.40;85.30;;;;;;6136681;23;20020;-77
2022/01/31 01:41:22;;;;;;;37.22;20.63;;;5.40;85.60;;;;;;6136721;23;20088;-80
2022/01/31 01:43:48;;;;;;;35.40;22.13;;;5.40;85.90;;;;;;6160780;23;20024;-81
2022/01/31 01:46:14;;;;;;;36.75;21.08;;;5.40;86.10;;;;;;6160942;23;20444;-79
2022/01/31 01:48:39;;;;;;;37.53;21.08;;;5.40;86.20;;;;;;6161183;23;20017;-79
2022/01/31 01:51:05;;;;;;;45.47;20.73;;;5.40;86.30;;;;;;6111999;23;20009;-80
2022/01/31 01:53:31;;;;;;;38.22;21.45;;;5.30;86.50;;;;;;6136526;23;20092;-81
2022/01/31 01:55:57;;;;;;;40.20;20.92;;;5.40;86.80;;;;;;6112070;23;20099;-80
2022/01/31 01:58:23;;;;;;;37.80;21.30;;;5.30;86.80;;;;;;6137204;23;20021;-79
2022/01/31 02:00:50;;;;;;;37.33;20.60;;;5.30;87.00;;;;;;6160965;23;20024;-79
2022/01/31 02:03:17;;;;;;;39.08;20.00;;;5.30;87.20;;;;;;6136857;23;20390;-78
2022/01/31 02:05:43;;;;;;;33.35;20.00;;;5.30;87.30;;;;;;6136196;23;20021;-79
2022/01/31 02:08:11;;;;;;;37.85;19.40;;;5.30;87.40;;;;;;6136437;23;20017;-80
2022/01/31 02:10:40;;;;;;;34.20;19.88;;;5.30;87.50;;;;;;6160965;23;20052;-81
2022/01/31 02:13:08;;;;;;;37.05;20.83;;;5.30;87.70;;;;;;6135000;23;20071;-79
2022/01/31 02:15:34;;;;;;;32.08;17.65;;;5.30;87.80;;;;;;6135878;23;20048;-81
2022/01/31 02:17:59;;;;;;;33.85;18.42;;;5.30;88.00;;;;;;6160612;23;20470;-79
2022/01/31 02:20:25;;;;;;;30.27;20.02;;;5.20;88.10;;;;;;6136338;23;20088;-80
2022/01/31 02:22:51;;;;;;;37.67;19.70;;;5.30;88.40;;;;;;6160038;23;20048;-80
2022/01/31 02:25:16;;;;;;;38.55;19.90;;;5.20;88.50;;;;;;6135998;23;20017;-79
2022/01/31 02:27:42;;;;;;;30.20;19.02;;;5.20;88.60;;;;;;6111434;23;20052;-79
2022/01/31 02:30:10;;;;;;;28.65;17.58;;;5.20;88.70;;;;;;6112381;23;20348;-80
2022/01/31 02:32:36;;;;;;;31.27;18.52;;;5.20;88.90;;;;;;6136033;23;20521;-86
2022/01/31 02:35:02;;;;;;;29.85;17.85;;;5.20;88.90;;;;;;6137043;23;20017;-80
2022/01/31 02:37:28;;;;;;;27.77;15.60;;;5.20;89.20;;;;;;6136186;23;20044;-79
2022/01/31 02:39:54;;;;;;;28.75;16.48;;;5.20;89.20;;;;;;6110706;23;20563;-79
2022/01/31 02:42:19;;;;;;;24.40;15.15;;;5.20;89.40;;;;;;6160741;23;20021;-80
2022/01/31 02:44:45;;;;;;;31.13;16.60;;;5.20;89.50;;;;;;6159939;23;20028;-81
2022/01/31 02:47:15;;;;;;;22.73;13.73;;;5.20;89.50;;;;;;6136334;23;20420;-79
2022/01/31 02:50:02;;;;;;;24.50;14.20;;;5.20;89.50;;;;;;6112507;23;20017;-79
2022/01/31 02:52:31;;;;;;;22.52;13.48;;;5.10;89.60;;;;;;6185613;23;20021;-80
2022/01/31 02:54:57;;;;;;;20.88;13.23;;;5.20;89.70;;;;;;6136146;23;20247;-79
2022/01/31 02:57:23;;;;;;;23.90;13.15;;;5.20;89.80;;;;;;6160834;23;20084;-79
2022/01/31 02:59:49;;;;;;;24.15;13.73;;;5.20;89.90;;;;;;6136721;23;20024;-79
2022/01/31 03:02:14;;;;;;;24.20;12.73;;;5.20;90.00;;;;;;6111985;23;20044;-78
2022/01/31 03:04:41;;;;;;;23.17;13.95;;;5.10;90.00;;;;;;6136318;23;20347;-86
2022/01/31 03:07:06;;;;;;;22.70;13.18;;;5.10;90.10;;;;;;6163488;23;20020;-79
2022/01/31 03:09:32;;;;;;;23.27;14.00;;;5.10;90.10;;;;;;6135992;23;20087;-79
2022/01/31 03:11:58;;;;;;;19.95;13.60;;;5.10;90.20;;;;;;6160377;23;20013;-79
2022/01/31 03:14:24;;;;;;;22.13;14.25;;;5.10;90.20;;;;;;6111088;23;20032;-79
2022/01/31 03:16:50;;;;;;;19.45;13.20;;;5.10;90.30;;;;;;6135371;23;20017;-80
2022/01/31 03:19:17;;;;;;;23.45;13.43;;;5.10;90.40;;;;;;6159452;23;20013;-80
2022/01/31 03:21:42;;;;;;;20.58;12.48;;;5.10;90.50;;;;;;6135526;23;20028;-86
2022/01/31 03:24:08;;;;;;;17.77;12.48;;;5.10;90.50;;;;;;6111386;23;20017;-83
2022/01/31 03:26:34;;;;;;;21.67;13.57;;;5.10;90.60;;;;;;6159928;23;20056;-80
2022/01/31 03:29:00;;;;;;;20.55;11.90;;;5.10;90.60;;;;;;6110659;23;20020;-78
2022/01/31 03:31:29;;;;;;;24.00;13.05;;;5.20;90.70;;;;;;6134682;23;20059;-78
2022/01/31 03:33:55;;;;;;;20.73;12.77;;;5.20;90.80;;;;;;6134860;23;20021;-78
2022/01/31 03:36:21;;;;;;;22.70;11.55;;;5.20;90.90;;;;;;6159468;23;20118;-79
2022/01/31 03:38:46;;;;;;;24.75;12.73;;;5.20;91.00;;;;;;6134713;23;20088;-79
2022/01/31 03:41:13;;;;;;;20.83;12.55;;;5.20;91.10;;;;;;6159834;23;20013;-77
2022/01/31 03:43:39;;;;;;;22.90;11.93;;;5.20;91.20;;;;;;6110428;23;20108;-76
2022/01/31 03:46:05;;;;;;;24.77;12.55;;;5.20;91.30;;;;;;6135032;23;20105;-80
2022/01/31 03:48:31;;;;;;;32.00;12.02;;;5.20;91.50;;;;;;6134940;23;20399;-80
2022/01/31 03:50:57;;;;;;;25.50;12.55;;;5.30;91.70;;;;;;6159804;23;20020;-79
2022/01/31 03:53:23;;;;;;;25.65;10.75;;;5.30;91.80;;;;;;6160301;23;20021;-80
2022/01/31 03:55:49;;;;;;;26.88;10.90;;;5.30;91.90;;;;;;6134788;23;20024;-79
2022/01/31 03:58:15;;;;;;;28.83;10.60;;;5.30;92.10;;;;;;6160032;23;20061;-80
2022/01/31 04:00:43;;;;;;;33.33;8.30;;;5.30;92.20;;;;;;6135141;23;20017;-81
2022/01/31 04:03:09;;;;;;;22.83;7.65;;;5.40;92.30;;;;;;6135746;23;20024;-80
2022/01/31 04:05:38;;;;;;;27.02;6.82;;;5.40;92.40;;;;;;6136525;23;20464;-79
2022/01/31 04:08:05;;;;;;;19.65;5.78;;;5.40;92.40;;;;;;6159948;23;20028;-79
2022/01/31 04:10:30;;;;;;;24.80;5.88;;;5.50;92.50;;;;;;6160389;23;20104;-79
2022/01/31 04:12:56;;;;;;;19.45;5.63;;;5.50;92.40;;;;;;6135928;23;20025;-80
2022/01/31 04:15:22;;;;;;;30.85;6.65;;;5.50;92.50;;;;;;6111063;23;20021;-79
2022/01/31 04:17:48;;;;;;;32.35;6.50;;;5.50;92.50;;;;;;6159924;23;20017;-79
2022/01/31 04:20:15;;;;;;;33.20;8.77;;;5.60;92.50;;;;;;6184985;23;20024;-80
2022/01/31 04:22:48;;;;;;;34.40;6.78;;;5.60;92.60;;;;;;6185467;23;20020;-82
2022/01/31 04:25:28;;;;;;;31.13;9.02;;;5.60;92.60;;;;;;6137066;23;20127;-80
2022/01/31 04:28:02;;;;;;;29.85;6.68;;;5.70;92.70;;;;;;6138275;23;20020;-80
2022/01/31 04:30:32;;;;;;;29.52;7.22;;;5.70;92.80;;;;;;6138082;23;20074;-80
2022/01/31 04:32:57;;;;;;;36.75;7.03;;;5.70;92.80;;;;;;6161090;23;20024;-79
2022/01/31 04:35:23;;;;;;;23.40;5.88;;;5.80;92.80;;;;;;6136931;23;20013;-80
2022/01/31 04:37:49;;;;;;;25.98;5.50;;;5.70;92.70;;;;;;6136935;23;20072;-79
2022/01/31 04:40:15;;;;;;;30.67;5.75;;;5.80;92.70;;;;;;6160779;23;20398;-81
2022/01/31 04:42:43;;;;;;;35.70;7.00;;;5.80;92.80;;;;;;6161339;23;20026;-79
2022/01/31 04:45:09;;;;;;;33.75;7.15;;;5.80;92.70;;;;;;6161761;23;20408;-78
2022/01/31 04:47:35;;;;;;;32.88;6.28;;;5.80;92.70;;;;;;6138258;23;20021;-79
2022/01/31 04:50:01;;;;;;;24.75;5.53;;;5.80;92.70;;;;;;6160828;23;20092;-79
2022/01/31 04:52:26;;;;;;;31.67;5.65;;;5.80;92.60;;;;;;6163640;23;20024;-79
2022/01/31 04:54:55;;;;;;;35.53;7.93;;;5.80;92.60;;;;;;6112715;23;20020;-80
2022/01/31 04:57:21;;;;;;;29.08;5.90;;;5.80;92.60;;;;;;6162926;23;20021;-79
2022/01/31 04:59:49;;;;;;;31.52;6.05;;;5.80;92.60;;;;;;6189203;23;20047;-78
2022/01/31 05:02:14;;;;;;;30.13;5.90;;;5.80;92.60;;;;;;6136028;23;20036;-79
2022/01/31 05:04:40;;;;;;;20.38;4.80;;;5.90;92.60;;;;;;6160457;23;20378;-80
2022/01/31 05:07:06;;;;;;;17.92;4.43;;;5.80;92.60;;;;;;6110572;23;20075;-81
2022/01/31 05:09:31;;;;;;;35.15;6.72;;;5.80;92.60;;;;;;6160151;23;20028;-81
2022/01/31 05:11:57;;;;;;;21.15;4.30;;;5.80;92.50;;;;;;6162100;23;20028;-90
2022/01/31 05:14:23;;;;;;;27.95;4.70;;;5.90;92.50;;;;;;6113274;23;20096;-81
2022/01/31 05:16:49;;;;;;;23.33;4.88;;;5.90;92.50;;;;;;6114379;23;20065;-80
2022/01/31 05:19:15;;;;;;;30.63;7.22;;;5.80;92.50;;;;;;6162244;23;20017;-80
2022/01/31 05:21:40;;;;;;;44.67;7.10;;;5.90;92.50;;;;;;6163202;23;20416;-79
2022/01/31 05:24:06;;;;;;;34.08;6.05;;;5.90;92.40;;;;;;6162734;23;20036;-80
2022/01/31 05:26:33;;;;;;;30.60;5.13;;;5.90;92.40;;;;;;6136646;23;20084;-83
2022/01/31 05:28:59;;;;;;;29.50;5.32;;;5.90;92.40;;;;;;6160957;23;20470;-87
2022/01/31 05:31:25;;;;;;;28.73;6.20;;;5.90;92.40;;;;;;6159739;23;20017;-79
2022/01/31 05:33:50;;;;;;;35.45;7.03;;;5.90;92.40;;;;;;6110369;23;20451;-80
2022/01/31 05:36:16;;;;;;;22.20;4.95;;;5.90;92.40;;;;;;6134810;23;20017;-82
2022/01/31 05:38:43;;;;;;;34.08;5.18;;;5.90;92.30;;;;;;6135418;23;20013;-80
2022/01/31 05:41:16;;;;;;;22.38;4.07;;;5.90;92.30;;;;;;6110359;23;20076;-79
2022/01/31 05:43:42;;;;;;;31.63;6.40;;;5.90;92.30;;;;;;6136181;23;20021;-79
2022/01/31 05:46:08;;;;;;;20.85;3.67;;;5.90;92.30;;;;;;6160253;23;20021;-79
2022/01/31 05:48:33;;;;;;;23.17;4.50;;;5.90;92.30;;;;;;6160530;23;20048;-80
2022/01/31 05:51:00;;;;;;;20.02;2.70;;;5.90;92.30;;;;;;6161527;23;20081;-79
2022/01/31 05:53:26;;;;;;;15.38;3.38;;;5.90;92.20;;;;;;6135677;23;20025;-80
2022/01/31 05:55:52;;;;;;;10.18;1.88;;;5.90;92.20;;;;;;6135064;23;20032;-80
2022/01/31 05:58:17;;;;;;;12.32;3.13;;;5.90;92.20;;;;;;6110393;23;20024;-81
2022/01/31 06:00:43;;;;;;;8.02;1.80;;;5.90;92.20;;;;;;6134857;23;20021;-81
2022/01/31 06:03:09;;;;;;;15.13;2.15;;;5.90;92.20;;;;;;6159168;23;20016;-81
2022/01/31 06:05:35;;;;;;;11.40;2.67;;;5.90;92.30;;;;;;6134697;23;20517;-83
2022/01/31 06:08:00;;;;;;;16.83;2.53;;;5.90;92.30;;;;;;6110074;23;20052;-81
2022/01/31 06:10:26;;;;;;;12.77;2.60;;;5.90;92.30;;;;;;6185525;23;20439;-81
2022/01/31 06:12:52;;;;;;;15.10;2.20;;;5.90;92.40;;;;;;6158389;23;20017;-80
2022/01/31 06:15:18;;;;;;;17.58;3.28;;;5.80;92.40;;;;;;6134444;23;20024;-86
2022/01/31 06:17:44;;;;;;;21.25;3.65;;;5.90;92.40;;;;;;6133584;23;20024;-83
2022/01/31 06:20:10;;;;;;;23.38;4.47;;;5.90;92.50;;;;;;6185662;23;20024;-81
2022/01/31 06:22:44;;;;;;;16.48;3.03;;;5.90;92.50;;;;;;6111633;23;20032;-80
2022/01/31 06:25:11;;;;;;;17.83;3.65;;;5.90;92.50;;;;;;6136547;23;20024;-81
2022/01/31 06:27:37;;;;;;;20.77;3.08;;;5.90;92.60;;;;;;6136425;23;20028;-80
2022/01/31 06:30:03;;;;;;;21.08;3.60;;;5.90;92.50;;;;;;6135748;23;20017;-80
2022/01/31 06:32:29;;;;;;;23.23;3.90;;;5.90;92.60;;;;;;6161021;23;20020;-81
2022/01/31 06:34:57;;;;;;;21.17;3.80;;;5.90;92.60;;;;;;6136968;23;20068;-80
2022/01/31 06:37:22;;;;;;;22.65;4.82;;;5.90;92.70;;;;;;6160946;23;20092;-81
2022/01/31 06:39:48;;;;;;;19.65;3.97;;;5.90;92.80;;;;;;6110971;23;20103;-87
2022/01/31 06:42:15;;;;;;;24.77;4.03;;;5.90;92.80;;;;;;6161137;23;20017;-91
2022/01/31 06:44:41;;;;;;;25.63;3.92;;;5.90;92.80;;;;;;6136624;23;20017;-85
2022/01/31 06:47:06;;;;;;;20.92;3.88;;;5.90;92.90;;;;;;6135594;23;20053;-88
2022/01/31 06:49:32;;;;;;;28.65;3.85;;;5.90;92.90;;;;;;6132117;23;20510;-84
2022/01/31 06:51:58;;;;;;;15.20;2.60;;;5.90;93.00;;;;;;6159076;23;20021;-82
2022/01/31 06:54:24;;;;;;;15.25;2.92;;;5.90;92.90;;;;;;6109881;23;20020;-83
2022/01/31 06:57:00;;;;;;;20.67;3.08;;;5.90;92.90;;;;;;6136558;23;20155;-82
2022/01/31 06:59:29;;;;;;;27.25;4.57;;;5.90;92.90;;;;;;6161585;23;20028;-83
2022/01/31 07:01:55;;;;;;;16.83;2.35;;;5.90;92.90;;;;;;6134263;23;20024;-86
2022/01/31 07:04:20;;;;;;;10.10;2.70;;;5.90;92.90;;;;;;6186452;23;20440;-85
2022/01/31 07:06:46;;;;;;;13.25;2.03;;;5.90;92.90;;;;;;6186288;23;20021;-84
2022/01/31 07:09:12;;;;;;;10.30;2.42;;;5.90;92.90;;;;;;6134426;23;20431;-86
2022/01/31 07:11:40;;;;;;;10.73;2.38;;;5.90;92.90;;;;;;6159086;23;20021;-80
2022/01/31 07:14:23;;;;;;;20.08;2.88;;;5.90;92.90;;;;;;6160659;23;20021;-83
2022/01/31 07:16:55;;;;;;;8.85;1.95;;;6.10;93.50;;;;;;6159615;23;20021;-83
2022/01/31 07:19:23;;;;;;;11.52;2.08;;;6.10;93.10;;;;;;6158255;23;20039;-84
2022/01/31 07:21:59;;;;;;;10.38;2.38;;;6.20;92.90;;;;;;6160613;23;20456;-82
2022/01/31 07:24:43;;;;;;;14.60;3.00;;;6.20;92.80;;;;;;6136074;23;20017;-82
2022/01/31 07:27:09;;;;;;;13.55;2.50;;;6.10;92.80;;;;;;6140112;23;20107;-83
2022/01/31 07:29:35;;;;;;;12.25;1.95;;;6.10;92.80;;;;;;6135363;23;20460;-82
2022/01/31 07:32:01;;;;;;;13.70;2.53;;;6.10;92.80;;;;;;6135494;23;20391;-82
2022/01/31 07:34:26;;;;;;;16.27;3.45;;;6.10;92.90;;;;;;6135508;23;20021;-82
2022/01/31 07:36:52;;;;;;;18.48;2.90;;;6.10;92.90;;;;;;6160721;23;20063;-79
2022/01/31 07:39:20;;;;;;;15.05;3.05;;;6.10;93.00;;;;;;6134883;23;20039;-84
2022/01/31 07:41:49;;;;;;;13.38;2.88;;;6.00;93.00;;;;;;6136443;23;20470;-82
2022/01/31 07:44:15;;;;;;;8.65;2.25;;;6.10;93.00;;;;;;6135809;23;20079;-82
2022/01/31 07:46:41;;;;;;;17.73;2.70;;;6.10;93.00;;;;;;6135550;23;20025;-82
2022/01/31 07:49:07;;;;;;;14.18;2.50;;;6.10;93.00;;;;;;6135737;23;20028;-81
2022/01/31 07:51:35;;;;;;;18.58;3.03;;;6.10;93.00;;;;;;6110985;23;20525;-81
2022/01/31 07:54:01;;;;;;;16.50;2.85;;;6.10;93.10;;;;;;6088101;23;20028;-81
2022/01/31 07:56:27;;;;;;;21.73;3.75;;;6.10;93.10;;;;;;6135237;23;20021;-82
2022/01/31 07:58:53;;;;;;;19.67;4.00;;;6.10;93.20;;;;;;6110251;23;20103;-82
2022/01/31 08:01:26;;;;;;;26.48;4.10;;;6.10;93.20;;;;;;6136276;23;20020;-84
2022/01/31 08:03:52;;;;;;;21.52;4.07;;;6.10;93.20;;;;;;6137648;23;20075;-83
2022/01/31 08:06:17;;;;;;;19.52;3.50;;;6.10;93.30;;;;;;6135032;23;20017;-83
2022/01/31 08:08:43;;;;;;;17.50;4.15;;;6.10;93.30;;;;;;6112537;23;20021;-82
2022/01/31 08:11:09;;;;;;;17.85;3.05;;;6.10;93.30;;;;;;6137281;23;20024;-82
2022/01/31 08:13:35;;;;;;;20.15;3.72;;;6.10;93.30;;;;;;6136768;23;20316;-83
2022/01/31 08:16:09;;;;;;;22.45;4.00;;;6.10;93.30;;;;;;6136920;23;20013;-82
2022/01/31 08:18:39;;;;;;;20.42;4.15;;;6.20;93.30;;;;;;6138674;23;20025;-83
2022/01/31 08:21:09;;;;;;;20.75;3.95;;;6.10;93.30;;;;;;6113183;23;20052;-82
2022/01/31 08:23:35;;;;;;;23.65;4.28;;;6.20;93.40;;;;;;6111528;23;20021;-82
2022/01/31 08:26:02;;;;;;;21.02;3.95;;;6.20;93.40;;;;;;6111396;23;20017;-83
2022/01/31 08:36:24;;;;;;;23.90;4.20;;;6.20;93.50;;;;;;6135756;23;20095;-83
2022/01/31 08:38:52;;;;;;;18.30;4.22;;;6.20;93.50;;;;;;6135485;23;20013;-83
2022/01/31 08:41:20;;;;;;;28.00;4.05;;;6.20;93.50;;;;;;6112020;23;20023;-81
2022/01/31 08:43:46;;;;;;;26.83;4.30;;;6.20;93.50;;;;;;6110372;23;20075;-82
2022/01/31 08:46:13;;;;;;;26.35;4.35;;;6.30;93.60;;;;;;6135135;23;20021;-81
2022/01/31 08:48:39;;;;;;;26.92;7.30;;;6.30;93.60;;;;;;6134969;23;20021;-82
2022/01/31 08:51:06;;;;;;;27.13;4.85;;;6.40;93.70;;;;;;6135333;23;20031;-82
2022/01/31 08:53:32;;;;;;;32.78;4.88;;;6.40;93.60;;;;;;6160200;23;20024;-81
2022/01/31 08:56:09;;;;;;;21.15;3.20;;;6.50;93.60;;;;;;6135989;23;20035;-81
2022/01/31 08:58:41;;;;;;;22.20;2.92;;;6.50;93.60;;;;;;6161557;23;20025;-83
2022/01/31 09:01:08;;;;;;;16.20;3.20;;;6.50;93.50;;;;;;6113021;23;20021;-82
2022/01/31 09:06:06;;;;;;;26.27;9.10;;;6.60;93.50;;;;;;6136078;23;20021;-82
2022/01/31 09:08:32;;;;;;;31.55;20.63;;;6.70;93.50;;;;;;6135800;23;20025;-83
2022/01/31 09:10:58;;;;;;;38.13;20.80;;;6.70;93.50;;;;;;6134961;23;20151;-81
2022/01/31 09:13:25;;;;;;;52.83;24.80;;;6.70;93.40;;;;;;6135026;23;20025;-81
2022/01/31 09:15:51;;;;;;;34.17;13.70;;;6.80;93.50;;;;;;6135352;23;20055;-82
2022/01/31 09:18:16;;;;;;;38.78;25.10;;;6.90;93.50;;;;;;6110361;23;20017;-83
2022/01/31 09:20:42;;;;;;;28.85;8.75;;;6.90;93.50;;;;;;6109908;23;20452;-81
2022/01/31 09:23:08;;;;;;;31.00;10.35;;;6.90;93.40;;;;;;6134908;23;20024;-81
2022/01/31 09:25:34;;;;;;;39.78;14.90;;;7.00;93.40;;;;;;6135090;23;20064;-82
2022/01/31 09:28:02;;;;;;;22.80;10.13;;;7.10;93.40;;;;;;6110182;23;20017;-82
2022/01/31 09:30:30;;;;;;;26.15;15.35;;;7.20;93.30;;;;;;6110928;23;20024;-82
2022/01/31 09:32:56;;;;;;;23.85;7.18;;;7.20;93.20;;;;;;6110531;23;20025;-81
2022/01/31 09:35:22;;;;;;;22.40;9.52;;;7.20;93.20;;;;;;6134511;23;20028;-82
2022/01/31 09:37:48;;;;;;;17.48;6.65;;;7.30;93.20;;;;;;6110106;23;20463;-83
2022/01/31 09:40:19;;;;;;;15.82;5.78;;;7.30;93.10;;;;;;6159517;23;20021;-81
2022/01/31 09:48:32;;;;;;;21.08;6.88;;;7.40;93.00;;;;;;6114718;23;20094;-81
2022/01/31 09:51:08;;;;;;;9.63;2.42;;;7.50;93.00;;;;;;6159116;23;20456;-81
2022/01/31 09:53:49;;;;;;;20.65;3.03;;;7.50;92.90;;;;;;6135297;23;20055;-81
2022/01/31 09:56:19;;;;;;;23.10;5.65;;;7.50;93.00;;;;;;6111814;23;20053;-81
2022/01/31 09:58:45;;;;;;;16.80;5.03;;;7.40;92.90;;;;;;6136995;23;20021;-81
2022/01/31 10:01:12;;;;;;;32.17;13.50;;;7.50;92.90;;;;;;6161369;23;20021;-82
2022/01/31 10:03:53;;;;;;;16.85;4.30;;;7.50;93.00;;;;;;6136538;23;20024;-82
2022/01/31 10:06:22;;;;;;;19.02;4.88;;;7.40;92.90;;;;;;6161122;23;20017;-82
2022/01/31 10:08:59;;;;;;;13.10;5.18;;;7.40;92.90;;;;;;6112163;23;20119;-83
2022/01/31 10:11:29;;;;;;;30.30;8.43;;;7.40;92.90;;;;;;6114084;23;20079;-81
2022/01/31 10:16:52;;;;;;;22.95;11.25;;;7.50;93.00;;;;;;6142794;23;20021;-81
2022/01/31 10:19:17;;;;;;;39.58;19.42;;;7.50;92.90;;;;;;6136282;23;20148;-81
2022/01/31 10:22:02;;;;;;;39.83;20.08;;;7.60;92.80;;;;;;6136559;23;20456;-82
2022/01/31 10:24:30;;;;;;;29.67;14.60;;;7.60;92.70;;;;;;6137070;23;20021;-83
2022/01/31 10:26:56;;;;;;;33.47;13.70;;;7.70;92.70;;;;;;6136685;23;20206;-82
2022/01/31 10:29:22;;;;;;;23.58;7.00;;;7.70;92.60;;;;;;6137037;23;20028;-81
2022/01/31 10:32:02;;;;;;;17.20;5.20;;;7.70;92.70;;;;;;6111967;23;20025;-82
2022/01/31 10:34:29;;;;;;;19.55;4.75;;;7.70;92.80;;;;;;6136158;23;20024;-82
2022/01/31 10:37:00;;;;;;;18.88;3.92;;;7.80;92.80;;;;;;6110593;23;20454;-82
2022/01/31 10:45:54;;;;;;;10.40;2.20;;;8.00;92.90;;;;;;6141319;23;20017;-82
2022/01/31 10:53:42;;;;;;;13.73;2.33;;;8.30;92.70;;;;;;6136909;23;20021;-83
2022/01/31 10:56:07;;;;;;;22.33;3.53;;;8.40;92.70;;;;;;6135388;23;20017;-84
2022/01/31 10:58:33;;;;;;;11.60;2.97;;;8.50;92.60;;;;;;6110504;23;20014;-88
2022/01/31 11:01:16;;;;;;;13.77;2.25;;;9.00;92.50;;;;;;6160776;23;20021;-87
2022/01/31 11:03:45;;;;;;;16.13;2.63;;;9.20;92.10;;;;;;6160390;23;20017;-84
2022/01/31 11:06:12;;;;;;;10.20;2.80;;;9.50;91.60;;;;;;6110528;23;20049;-84
2022/01/31 11:08:38;;;;;;;15.35;2.58;;;9.60;91.40;;;;;;6136839;23;20028;-80
2022/01/31 11:11:07;;;;;;;15.88;3.28;;;9.70;91.20;;;;;;6186465;23;20109;-85
2022/01/31 11:13:36;;;;;;;23.17;3.50;;;9.80;91.00;;;;;;6111906;23;20021;-81
2022/01/31 11:16:04;;;;;;;18.10;2.92;;;9.80;90.80;;;;;;6133808;23;20028;-82
2022/01/31 11:18:36;;;;;;;16.80;2.78;;;9.70;90.80;;;;;;6160578;23;20317;-84
2022/01/31 11:21:04;;;;;;;26.27;3.90;;;9.70;90.80;;;;;;6131384;23;20017;-83
2022/01/31 11:23:33;;;;;;;19.80;3.40;;;9.60;90.80;;;;;;6160286;23;20049;-84
2022/01/31 11:26:17;;;;;;;15.65;2.85;;;9.50;90.80;;;;;;6118258;23;20017;-86
2022/01/31 11:28:44;;;;;;;19.83;3.03;;;9.50;90.80;;;;;;6135703;23;20099;-80
2022/01/31 11:31:10;;;;;;;20.08;3.78;;;9.50;90.80;;;;;;6110783;23;20017;-85
2022/01/31 11:33:36;;;;;;;16.88;2.90;;;9.70;90.70;;;;;;6136413;23;20032;-83
2022/01/31 11:36:02;;;;;;;21.45;3.35;;;9.90;90.50;;;;;;6160418;23;20013;-83
2022/01/31 11:41:51;;;;;;;18.17;3.40;;;10.50;89.90;;;;;;6101233;23;20028;-84
2022/01/31 11:44:23;;;;;;;22.88;3.67;;;11.30;88.30;;;;;;6161815;23;20092;-81
2022/01/31 11:53:48;;;;;;;19.60;3.30;;;12.80;83.10;;;;;;6193836;23;20056;-89
2022/01/31 11:56:18;;;;;;;16.88;3.22;;;12.80;82.60;;;;;;6161225;23;20024;-86
2022/01/31 11:58:52;;;;;;;9.63;2.33;;;12.90;82.10;;;;;;6136477;23;20024;-87
2022/01/31 12:01:21;;;;;;;11.73;1.85;;;13.20;81.50;;;;;;6161877;23;20040;-88
2022/01/31 12:04:36;;;;;;;;;;;;;;;;;;;;;
2022/01/31 12:07:42;;;;;;;9.18;1.75;;;14.80;78.00;;;;;;6159859;23;20024;-84
2022/01/31 12:10:21;;;;;;;13.38;2.40;;;15.80;75.50;;;;;;6160058;23;20075;-87
2022/01/31 12:12:53;;;;;;;8.68;1.45;;;16.50;73.50;;;;;;6135807;23;20056;-86
2022/01/31 12:24:07;;;;;;;13.10;2.10;;;15.80;71.90;;;;;;6139103;23;20472;-78
2022/01/31 12:26:35;;;;;;;9.20;2.17;;;15.60;73.40;;;;;;6159724;23;20017;-79
2022/01/31 12:29:13;;;;;;;10.00;1.92;;;15.70;73.50;;;;;;6135213;23;20017;-80
2022/01/31 12:31:53;;;;;;;14.02;2.35;;;15.70;71.70;;;;;;6159484;23;20044;-82
2022/01/31 12:34:21;;;;;;;10.95;2.65;;;15.80;71.40;;;;;;6110519;23;20028;-80
2022/01/31 12:36:52;;;;;;;11.57;2.40;;;16.10;72.10;;;;;;6160263;23;20510;-80
2022/01/31 12:42:02;;;;;;;12.70;2.53;;;16.70;69.70;;;;;;6159153;23;20036;-79
2022/01/31 12:44:30;;;;;;;;;;;16.90;69.50;;;;;;6160504;23;20066;-78
2022/01/31 12:47:11;;;;;;;10.35;2.22;;;16.90;68.10;;;;;;6184455;23;19920;-79
2022/01/31 12:49:37;;;;;;;14.85;3.10;;;16.80;69.00;;;;;;6135788;23;20017;-78
2022/01/31 12:52:04;;;;;;;12.35;2.95;;;16.50;70.00;;;;;;6158878;23;20086;-80
2022/01/31 12:54:30;;;;;;;19.33;3.03;;;16.10;70.20;;;;;;6135204;23;20023;-81
2022/01/31 12:57:02;;;;;;;18.38;3.88;;;15.70;70.70;;;;;;6134772;23;20095;-80
2022/01/31 12:59:31;;;;;;;25.88;4.82;;;15.50;70.60;;;;;;6135430;23;20024;-80
2022/01/31 13:01:58;;;;;;;21.33;3.15;;;15.10;71.30;;;;;;6159538;23;20047;-82
2022/01/31 13:05:05;;;;;;;22.17;3.40;;;14.80;72.00;;;;;;6134202;23;20317;-80
2022/01/31 13:07:31;;;;;;;21.15;3.80;;;14.30;71.20;;;;;;6185359;23;20395;-79
2022/01/31 13:10:05;;;;;;;16.50;3.30;;;14.00;73.70;;;;;;6134994;23;20088;-81
2022/01/31 13:12:31;;;;;;;19.23;4.50;;;13.60;74.20;;;;;;6112366;23;20017;-80
2022/01/31 13:14:57;;;;;;;12.25;3.03;;;13.40;74.70;;;;;;6134663;23;20056;-81
2022/01/31 13:17:25;;;;;;;12.65;2.88;;;13.20;75.10;;;;;;6134851;23;20044;-81
2022/01/31 13:19:58;;;;;;;15.35;3.00;;;12.80;75.60;;;;;;6134996;23;20071;-80
2022/01/31 13:22:38;;;;;;;17.48;2.58;;;12.50;76.00;;;;;;6134902;23;20024;-80
2022/01/31 13:25:10;;;;;;;15.02;2.85;;;12.30;76.50;;;;;;6136019;23;20024;-85
2022/01/31 13:27:55;;;;;;;21.25;3.47;;;12.10;77.30;;;;;;6159563;23;20340;-78
2022/01/31 13:30:25;;;;;;;15.65;3.20;;;11.90;77.30;;;;;;6158241;23;20087;-81
2022/01/31 13:32:51;;;;;;;18.10;2.88;;;11.70;78.30;;;;;;6109581;23;20024;-79
2022/01/31 13:35:25;;;;;;;19.70;3.08;;;11.60;78.60;;;;;;6134478;23;20057;-81
2022/01/31 13:37:58;;;;;;;17.23;3.38;;;11.60;79.00;;;;;;6111151;23;20017;-79
2022/01/31 13:40:47;;;;;;;15.52;3.13;;;11.50;79.20;;;;;;6158851;23;20159;-80
2022/01/31 13:43:29;;;;;;;21.15;4.63;;;11.50;79.40;;;;;;6112906;23;20059;-80